Time;durP1;ratioP1;P1;durP2;ratioP2;P2;SDS_P1;SDS_P2;PMS_P1;PMS_P2;Temp;Humidity;BMP_temperature;BMP_pressure;BME280_temperature;BME280_humidity;BME280_pressure;Samples;Min_cycle;Max_cycle;Signal;HPM_P1;HPM_P2
2024/01/16 00:01:06;;;;;;;5.00;3.00;;;5.10;51.90;;;;;;4987935;28;20431;-59
2024/01/16 00:03:32;;;;;;;4.53;2.70;;;4.90;51.70;;;;;;4964277;28;20439;-57
2024/01/16 00:05:58;;;;;;;7.23;3.47;;;5.00;52.00;;;;;;4966525;28;20469;-57
2024/01/16 00:08:23;;;;;;;4.70;3.60;;;5.00;52.00;;;;;;4968310;28;20435;-58
2024/01/16 00:10:50;;;;;;;9.10;3.17;;;4.90;51.80;;;;;;4968423;28;20438;-56
2024/01/16 00:13:16;;;;;;;5.47;2.87;;;4.80;51.80;;;;;;4966780;28;20724;-58
2024/01/16 00:15:42;;;;;;;6.10;3.10;;;4.70;52.10;;;;;;4966951;28;20473;-57
2024/01/16 00:18:08;;;;;;;5.23;3.17;;;4.80;52.20;;;;;;4998909;28;20474;-57
2024/01/16 00:20:34;;;;;;;3.67;3.20;;;5.00;52.20;;;;;;4968174;28;20454;-58
2024/01/16 00:23:00;;;;;;;4.27;3.30;;;5.00;51.80;;;;;;4972644;28;20188;-57
2024/01/16 00:25:26;;;;;;;4.80;3.80;;;5.00;51.70;;;;;;4970952;28;20314;-58
2024/01/16 00:27:52;;;;;;;4.80;3.50;;;5.20;51.60;;;;;;4967118;28;20872;-58
2024/01/16 00:30:18;;;;;;;4.90;3.40;;;5.10;51.60;;;;;;4969217;28;20236;-58
2024/01/16 00:32:43;;;;;;;6.00;3.47;;;5.20;51.70;;;;;;4971618;28;20192;-59
2024/01/16 00:35:09;;;;;;;6.10;3.10;;;5.10;51.60;;;;;;4967338;28;20519;-58
2024/01/16 00:37:39;;;;;;;5.80;3.90;;;5.00;51.80;;;;;;4965700;28;20227;-56
2024/01/16 00:40:05;;;;;;;5.90;3.73;;;4.80;51.90;;;;;;4962695;28;20221;-58
2024/01/16 00:42:31;;;;;;;4.50;3.30;;;4.70;52.40;;;;;;4966590;28;21017;-58
2024/01/16 00:44:58;;;;;;;3.47;2.87;;;4.80;52.30;;;;;;4997076;28;20441;-57
2024/01/16 00:47:24;;;;;;;5.00;3.20;;;4.80;52.40;;;;;;4981772;28;20218;-58
2024/01/16 00:49:49;;;;;;;5.33;3.63;;;4.80;52.30;;;;;;4975488;28;20521;-58
2024/01/16 00:52:15;;;;;;;5.07;3.63;;;4.90;52.30;;;;;;4964907;28;20541;-58
2024/01/16 00:54:41;;;;;;;5.03;3.23;;;4.90;51.90;;;;;;4974556;28;20207;-55
2024/01/16 00:57:07;;;;;;;7.80;3.67;;;5.00;52.10;;;;;;4967321;28;20296;-57
2024/01/16 00:59:33;;;;;;;5.40;3.57;;;4.90;52.20;;;;;;4980047;28;20443;-56
2024/01/16 01:01:58;;;;;;;3.77;3.37;;;5.10;51.90;;;;;;4967246;28;20195;-58
2024/01/16 01:04:24;;;;;;;4.63;3.60;;;5.20;51.70;;;;;;4966152;28;20196;-58
2024/01/16 01:06:49;;;;;;;9.50;3.70;;;5.30;51.50;;;;;;4966607;28;20207;-57
2024/01/16 01:09:16;;;;;;;5.30;3.53;;;5.50;51.20;;;;;;4965589;28;20199;-57
2024/01/16 01:11:41;;;;;;;4.20;3.60;;;5.30;51.10;;;;;;4969094;28;20184;-57
2024/01/16 01:14:07;;;;;;;4.10;2.90;;;5.40;51.20;;;;;;4967039;28;20504;-58
2024/01/16 01:16:33;;;;;;;5.30;3.23;;;5.50;51.10;;;;;;4964939;28;20650;-55
2024/01/16 01:18:58;;;;;;;4.00;3.60;;;5.70;50.90;;;;;;4965870;28;20396;-58
2024/01/16 01:21:24;;;;;;;4.63;3.30;;;5.70;50.60;;;;;;4967192;28;20733;-58
2024/01/16 01:23:50;;;;;;;5.53;3.23;;;5.80;50.50;;;;;;4963345;28;20188;-58
2024/01/16 01:26:17;;;;;;;6.93;2.97;;;5.70;50.30;;;;;;4966383;28;20218;-56
2024/01/16 01:28:43;;;;;;;6.90;3.43;;;5.90;50.30;;;;;;4966499;28;20195;-56
2024/01/16 01:31:10;;;;;;;7.17;4.10;;;5.90;50.20;;;;;;4966608;28;20463;-57
2024/01/16 01:33:36;;;;;;;5.93;3.50;;;6.00;50.10;;;;;;4978605;28;20911;-57
2024/01/16 01:36:01;;;;;;;4.77;3.60;;;6.10;49.90;;;;;;4966684;28;20513;-56
2024/01/16 01:38:27;;;;;;;5.87;3.57;;;6.20;49.80;;;;;;4965898;28;20215;-58
2024/01/16 01:40:52;;;;;;;5.63;4.13;;;6.20;49.60;;;;;;4965011;28;20397;-58
2024/01/16 01:43:21;;;;;;;5.47;3.87;;;6.30;49.80;;;;;;4960977;28;20187;-59
2024/01/16 01:46:20;;;;;;;6.17;3.27;;;6.40;49.70;;;;;;4985895;28;21034;-57
2024/01/16 01:48:47;;;;;;;5.67;3.67;;;6.40;49.70;;;;;;4953945;28;21048;-56
2024/01/16 01:51:14;;;;;;;4.37;3.53;;;6.40;49.60;;;;;;4971006;28;20822;-58
2024/01/16 01:53:43;;;;;;;5.40;3.83;;;6.40;49.50;;;;;;4967503;28;20841;-57
2024/01/16 01:56:13;;;;;;;5.90;3.70;;;6.50;49.50;;;;;;4965089;28;20577;-58
2024/01/16 01:58:40;;;;;;;4.77;4.00;;;6.50;49.40;;;;;;4971919;28;20490;-57
2024/01/16 02:01:09;;;;;;;5.30;3.50;;;6.50;49.30;;;;;;4964325;28;20763;-58
2024/01/16 02:03:41;;;;;;;4.90;3.60;;;6.50;49.10;;;;;;4966201;28;20463;-57
2024/01/16 02:06:07;;;;;;;4.13;3.03;;;6.50;49.20;;;;;;4964312;28;20473;-58
2024/01/16 02:08:33;;;;;;;4.93;3.60;;;6.50;49.30;;;;;;4979536;28;20455;-55
2024/01/16 02:10:58;;;;;;;6.67;3.60;;;6.50;49.20;;;;;;4965676;28;20441;-59
2024/01/16 02:13:24;;;;;;;4.57;2.90;;;6.60;49.00;;;;;;4966667;28;20191;-57
2024/01/16 02:15:52;;;;;;;3.50;2.80;;;6.60;48.90;;;;;;4971004;28;20218;-58
2024/01/16 02:18:18;;;;;;;6.30;4.30;;;6.60;48.90;;;;;;4961079;28;20222;-57
2024/01/16 02:20:47;;;;;;;5.23;4.23;;;6.60;48.90;;;;;;4963645;28;20427;-59
2024/01/16 02:23:14;;;;;;;4.97;4.03;;;6.60;48.90;;;;;;4963104;28;20191;-58
2024/01/16 02:25:43;;;;;;;4.20;3.30;;;6.70;49.00;;;;;;4974297;28;20504;-56
2024/01/16 02:28:09;;;;;;;6.23;3.90;;;6.70;49.10;;;;;;4964797;28;20473;-58
2024/01/16 02:30:35;;;;;;;6.63;4.00;;;6.70;49.10;;;;;;4968048;28;20989;-57
2024/01/16 02:33:00;;;;;;;6.63;3.50;;;6.70;49.30;;;;;;4968257;28;20183;-60
2024/01/16 02:35:26;;;;;;;5.53;3.70;;;6.70;49.30;;;;;;4965766;28;20215;-58
2024/01/16 02:37:51;;;;;;;7.90;3.93;;;6.70;49.20;;;;;;4965460;28;20242;-57
2024/01/16 02:40:17;;;;;;;6.43;4.00;;;6.70;49.20;;;;;;4965948;28;20187;-58
2024/01/16 02:42:43;;;;;;;4.80;3.50;;;6.70;49.20;;;;;;4963917;28;20194;-58
2024/01/16 02:45:09;;;;;;;9.53;4.40;;;6.60;49.10;;;;;;4970790;28;20183;-54
2024/01/16 02:47:35;;;;;;;6.07;4.00;;;6.60;49.20;;;;;;4967267;28;20225;-58
2024/01/16 02:50:01;;;;;;;5.10;3.40;;;6.60;49.10;;;;;;4967996;28;20491;-55
2024/01/16 02:52:26;;;;;;;5.97;3.17;;;6.60;49.20;;;;;;4968800;28;20435;-59
2024/01/16 02:54:52;;;;;;;4.63;3.40;;;6.60;49.20;;;;;;4968736;28;20496;-58
2024/01/16 02:57:18;;;;;;;4.50;3.37;;;6.50;49.20;;;;;;4969851;28;20289;-59
2024/01/16 02:59:44;;;;;;;7.20;3.43;;;6.50;49.30;;;;;;4993036;28;20194;-59
2024/01/16 03:02:11;;;;;;;5.13;3.80;;;6.50;49.30;;;;;;4972153;28;20196;-59
2024/01/16 03:04:36;;;;;;;6.80;3.63;;;6.50;49.30;;;;;;4973508;28;20921;-57
2024/01/16 03:07:02;;;;;;;8.90;4.00;;;6.50;49.30;;;;;;4975262;28;20917;-57
2024/01/16 03:09:28;;;;;;;5.23;3.20;;;6.50;49.20;;;;;;4969981;28;20188;-58
2024/01/16 03:11:53;;;;;;;5.43;3.30;;;6.50;49.10;;;;;;4964050;28;20483;-58
2024/01/16 03:14:19;;;;;;;3.73;3.07;;;6.40;49.10;;;;;;4969565;28;20650;-55
2024/01/16 03:16:44;;;;;;;5.00;3.23;;;6.40;49.10;;;;;;4967319;28;20661;-54
2024/01/16 03:19:12;;;;;;;4.83;3.73;;;6.40;49.10;;;;;;4982366;28;20283;-57
2024/01/16 03:21:38;;;;;;;6.23;3.70;;;6.40;49.10;;;;;;4983552;28;20188;-58
2024/01/16 03:24:05;;;;;;;4.73;3.40;;;6.50;49.00;;;;;;4966024;28;20764;-55
2024/01/16 03:26:32;;;;;;;4.33;3.27;;;6.40;48.70;;;;;;4968603;28;20454;-56
2024/01/16 03:28:58;;;;;;;4.83;3.40;;;6.40;48.70;;;;;;4967501;28;20440;-56
2024/01/16 03:31:23;;;;;;;3.13;2.83;;;6.50;48.70;;;;;;4968017;28;20925;-57
2024/01/16 03:33:49;;;;;;;6.13;3.77;;;6.50;48.60;;;;;;4967912;28;20681;-52
2024/01/16 03:36:15;;;;;;;6.37;3.90;;;6.50;48.70;;;;;;4970369;28;20378;-54
2024/01/16 03:38:42;;;;;;;5.57;3.23;;;6.50;48.90;;;;;;4983644;28;21039;-55
2024/01/16 03:41:08;;;;;;;4.03;3.63;;;6.40;48.90;;;;;;4965813;28;20458;-58
2024/01/16 03:43:34;;;;;;;4.00;2.90;;;6.40;48.90;;;;;;4968597;28;20775;-55
2024/01/16 03:46:00;;;;;;;8.53;4.23;;;6.30;49.10;;;;;;4969451;28;20655;-57
2024/01/16 03:48:26;;;;;;;4.77;3.10;;;6.30;49.30;;;;;;4982095;28;20949;-56
2024/01/16 03:50:53;;;;;;;5.53;3.63;;;6.20;49.10;;;;;;4982241;28;20446;-59
2024/01/16 03:53:19;;;;;;;6.67;3.50;;;6.20;49.10;;;;;;4981595;28;20191;-57
2024/01/16 03:55:44;;;;;;;6.53;4.00;;;6.30;49.00;;;;;;4977091;28;20564;-58
2024/01/16 03:58:10;;;;;;;5.00;3.37;;;6.20;48.90;;;;;;4964669;28;20219;-56
2024/01/16 04:00:36;;;;;;;4.67;3.87;;;6.20;49.10;;;;;;4973259;28;20188;-58
2024/01/16 04:03:02;;;;;;;8.10;4.30;;;6.10;49.10;;;;;;4981249;28;20651;-57
2024/01/16 04:05:27;;;;;;;7.40;5.17;;;6.10;49.10;;;;;;4970905;28;20481;-55
2024/01/16 04:07:53;;;;;;;7.00;4.20;;;6.10;49.00;;;;;;4962230;28;20251;-55
2024/01/16 04:10:18;;;;;;;6.50;3.90;;;6.00;49.20;;;;;;4972668;28;20261;-54
2024/01/16 04:12:44;;;;;;;4.13;3.37;;;5.90;49.30;;;;;;4967239;28;20276;-53
2024/01/16 04:15:10;;;;;;;4.30;3.50;;;6.00;49.10;;;;;;4968369;28;20188;-54
2024/01/16 04:17:35;;;;;;;5.50;4.10;;;6.00;49.10;;;;;;4968239;28;20219;-54
2024/01/16 04:20:01;;;;;;;9.20;3.90;;;6.00;49.10;;;;;;4968227;28;20198;-58
2024/01/16 04:22:26;;;;;;;5.83;3.80;;;6.00;49.00;;;;;;4974113;28;20188;-57
2024/01/16 04:24:52;;;;;;;6.00;3.77;;;6.00;48.90;;;;;;4968588;28;20200;-59
2024/01/16 04:27:18;;;;;;;5.67;3.77;;;6.00;49.10;;;;;;4978290;28;20278;-59
2024/01/16 04:29:43;;;;;;;4.77;3.60;;;6.00;49.10;;;;;;4967939;28;20438;-57
2024/01/16 04:32:09;;;;;;;7.00;3.13;;;6.00;49.20;;;;;;4969182;28;20187;-58
2024/01/16 04:34:34;;;;;;;4.80;3.40;;;5.90;49.00;;;;;;4965235;28;20619;-59
2024/01/16 04:37:00;;;;;;;4.70;3.80;;;5.90;49.00;;;;;;4964840;28;20306;-58
2024/01/16 04:39:25;;;;;;;4.53;3.10;;;5.80;49.00;;;;;;4966122;28;20218;-57
2024/01/16 04:41:51;;;;;;;4.60;3.43;;;5.80;48.90;;;;;;4964420;28;20192;-58
2024/01/16 04:44:17;;;;;;;6.13;3.40;;;5.70;48.90;;;;;;4968015;28;20179;-56
2024/01/16 04:46:42;;;;;;;5.10;3.70;;;5.70;48.90;;;;;;4967175;28;20199;-59
2024/01/16 04:49:08;;;;;;;5.70;4.20;;;5.60;48.90;;;;;;4964658;28;20377;-59
2024/01/16 04:51:34;;;;;;;5.53;3.90;;;5.60;48.90;;;;;;4965941;28;20199;-59
2024/01/16 04:53:59;;;;;;;5.93;4.00;;;5.60;49.00;;;;;;4968010;28;20508;-57
2024/01/16 04:56:25;;;;;;;5.27;3.87;;;5.60;49.10;;;;;;4976627;28;20212;-59
2024/01/16 04:58:52;;;;;;;7.70;4.10;;;5.50;49.00;;;;;;4970947;28;20214;-59
2024/01/16 05:01:17;;;;;;;5.47;4.07;;;5.50;49.00;;;;;;4965274;28;20619;-57
2024/01/16 05:03:43;;;;;;;5.63;3.80;;;5.40;49.00;;;;;;4968106;28;20446;-57
2024/01/16 05:06:18;;;;;;;7.43;3.70;;;5.40;49.00;;;;;;4966511;28;20211;-59
2024/01/16 05:08:43;;;;;;;10.63;3.37;;;5.40;49.00;;;;;;4964964;28;20197;-56
2024/01/16 05:11:09;;;;;;;7.70;4.17;;;5.30;49.00;;;;;;4976329;28;20442;-58
2024/01/16 05:13:35;;;;;;;5.53;3.80;;;5.30;49.20;;;;;;4967509;28;20253;-59
2024/01/16 05:16:00;;;;;;;4.77;3.80;;;5.20;49.20;;;;;;4963081;28;20481;-58
2024/01/16 05:18:26;;;;;;;5.50;3.80;;;5.20;49.20;;;;;;4966308;28;20219;-58
2024/01/16 05:20:52;;;;;;;5.70;3.93;;;5.20;49.20;;;;;;4967244;28;20257;-58
2024/01/16 05:23:17;;;;;;;5.07;4.57;;;5.20;49.20;;;;;;4968739;28;20650;-56
2024/01/16 05:25:43;;;;;;;6.53;4.37;;;5.10;49.30;;;;;;4966417;28;20219;-54
2024/01/16 05:28:10;;;;;;;5.70;3.70;;;5.10;49.40;;;;;;4963230;28;20208;-57
2024/01/16 05:30:35;;;;;;;9.23;4.10;;;5.10;49.60;;;;;;4963540;28;20191;-56
2024/01/16 05:33:01;;;;;;;4.70;3.47;;;5.00;49.70;;;;;;4969840;28;20466;-59
2024/01/16 05:35:29;;;;;;;5.80;3.40;;;5.00;49.80;;;;;;4965559;28;20231;-56
2024/01/16 05:37:56;;;;;;;5.17;3.00;;;5.00;49.70;;;;;;4963980;28;20216;-56
2024/01/16 05:40:22;;;;;;;5.80;4.40;;;5.00;49.90;;;;;;4963673;28;20462;-56
2024/01/16 05:42:48;;;;;;;9.40;4.93;;;5.00;49.80;;;;;;4966389;28;20943;-59
2024/01/16 05:45:14;;;;;;;12.53;5.70;;;5.00;49.70;;;;;;4966799;28;20451;-58
2024/01/16 05:47:40;;;;;;;8.33;5.67;;;5.00;49.70;;;;;;4980545;28;20479;-58
2024/01/16 05:50:06;;;;;;;6.87;4.73;;;5.10;49.70;;;;;;4966834;28;20183;-59
2024/01/16 05:52:32;;;;;;;9.40;4.83;;;5.00;49.60;;;;;;4978131;28;20199;-59
2024/01/16 05:54:59;;;;;;;7.80;5.03;;;5.00;49.80;;;;;;4979913;28;20453;-59
2024/01/16 05:57:25;;;;;;;5.20;3.60;;;4.80;50.10;;;;;;4966503;28;20222;-55
2024/01/16 05:59:51;;;;;;;5.30;4.33;;;4.80;50.30;;;;;;4970076;28;20857;-57
2024/01/16 06:02:16;;;;;;;6.10;4.17;;;4.80;50.20;;;;;;4968049;28;20462;-57
2024/01/16 06:04:42;;;;;;;3.90;3.50;;;4.90;50.10;;;;;;4968932;28;20548;-57
2024/01/16 06:07:08;;;;;;;7.70;3.97;;;4.70;50.10;;;;;;4976444;28;20215;-59
2024/01/16 06:09:39;;;;;;;7.97;4.43;;;4.80;50.30;;;;;;4966229;28;20184;-59
2024/01/16 06:12:06;;;;;;;7.70;5.30;;;4.80;50.30;;;;;;4982621;28;20196;-56
2024/01/16 06:14:32;;;;;;;6.70;4.57;;;4.90;50.20;;;;;;4971667;28;20455;-57
2024/01/16 06:16:58;;;;;;;6.50;5.03;;;4.90;50.00;;;;;;4966718;28;20489;-59
2024/01/16 06:19:23;;;;;;;4.53;3.70;;;4.90;50.00;;;;;;4972329;28;20967;-59
2024/01/16 06:21:49;;;;;;;4.77;3.57;;;4.90;49.90;;;;;;4965447;28;20187;-59
2024/01/16 06:24:15;;;;;;;5.10;3.80;;;4.90;49.80;;;;;;4972520;28;20227;-59
2024/01/16 06:26:42;;;;;;;7.43;4.77;;;4.90;49.70;;;;;;4962741;28;20268;-58
2024/01/16 06:29:07;;;;;;;8.73;4.60;;;4.60;49.70;;;;;;4975460;28;20195;-57
2024/01/16 06:31:33;;;;;;;5.50;4.00;;;4.30;50.40;;;;;;4964221;28;20461;-57
2024/01/16 06:33:59;;;;;;;5.93;3.80;;;4.20;54.40;;;;;;4983252;28;20275;-59
2024/01/16 06:36:24;;;;;;;11.00;7.47;;;4.40;55.50;;;;;;4964601;28;20682;-58
2024/01/16 06:38:50;;;;;;;13.07;10.63;;;4.70;55.40;;;;;;4965046;28;20268;-59
2024/01/16 06:41:16;;;;;;;7.47;6.23;;;5.10;54.10;;;;;;4971401;28;20226;-58
2024/01/16 06:43:41;;;;;;;6.60;4.97;;;5.10;51.50;;;;;;4964106;28;20609;-55
2024/01/16 06:46:07;;;;;;;5.97;3.33;;;5.30;50.70;;;;;;4966560;28;20211;-59
2024/01/16 06:48:35;;;;;;;5.33;3.50;;;5.20;49.80;;;;;;4968075;28;20538;-59
2024/01/16 06:51:01;;;;;;;6.40;3.60;;;5.30;49.50;;;;;;4964298;28;20199;-60
2024/01/16 06:53:26;;;;;;;4.60;3.90;;;5.30;49.20;;;;;;4966996;28;20435;-60
2024/01/16 06:55:52;;;;;;;5.17;3.40;;;5.30;49.10;;;;;;4964493;28;20220;-60
2024/01/16 06:58:17;;;;;;;5.50;4.10;;;5.20;48.70;;;;;;4960488;28;20231;-56
2024/01/16 07:00:43;;;;;;;10.03;4.40;;;5.10;48.90;;;;;;4961843;28;20215;-59
2024/01/16 07:03:09;;;;;;;4.90;3.90;;;5.20;49.00;;;;;;4965144;28;20686;-58
2024/01/16 07:05:34;;;;;;;6.47;4.20;;;5.10;48.70;;;;;;4962716;28;20469;-59
2024/01/16 07:08:00;;;;;;;5.93;3.70;;;4.90;48.90;;;;;;4965469;28;20198;-59
2024/01/16 07:10:26;;;;;;;5.30;4.00;;;4.90;49.30;;;;;;4965788;28;20198;-59
2024/01/16 07:12:51;;;;;;;7.30;3.70;;;4.90;49.20;;;;;;4969961;28;20533;-59
2024/01/16 07:15:18;;;;;;;6.60;4.80;;;4.90;49.10;;;;;;4965305;28;20215;-59
2024/01/16 07:17:43;;;;;;;5.80;4.10;;;4.80;49.30;;;;;;4965550;28;20281;-60
2024/01/16 07:20:10;;;;;;;5.47;3.63;;;4.90;49.50;;;;;;4966642;28;20423;-60
2024/01/16 07:22:37;;;;;;;9.60;4.57;;;4.90;49.20;;;;;;4964493;28;20742;-60
2024/01/16 07:25:03;;;;;;;5.10;3.70;;;4.80;49.00;;;;;;4966530;28;20437;-60
2024/01/16 07:27:28;;;;;;;5.00;4.00;;;4.90;49.10;;;;;;4965160;28;20466;-60
2024/01/16 07:29:54;;;;;;;5.00;3.47;;;4.90;49.00;;;;;;4966601;28;20575;-60
2024/01/16 07:32:19;;;;;;;3.63;3.23;;;4.80;48.60;;;;;;4964378;28;20195;-57
2024/01/16 07:34:45;;;;;;;7.60;3.67;;;4.90;49.00;;;;;;4969337;28;20183;-58
2024/01/16 07:37:10;;;;;;;5.10;3.90;;;5.00;49.10;;;;;;4966612;28;20276;-58
2024/01/16 07:39:36;;;;;;;9.07;3.73;;;4.70;49.10;;;;;;4970491;28;20184;-58
2024/01/16 07:42:02;;;;;;;6.17;4.27;;;4.70;49.40;;;;;;4967787;28;20211;-59
2024/01/16 07:44:27;;;;;;;9.27;4.07;;;4.90;49.20;;;;;;4970106;28;20187;-57
2024/01/16 07:46:53;;;;;;;21.70;10.10;;;5.00;48.90;;;;;;4967808;28;20591;-60
2024/01/16 07:49:18;;;;;;;21.30;9.00;;;5.00;48.60;;;;;;4969977;28;20184;-58
2024/01/16 07:51:44;;;;;;;16.60;8.00;;;5.10;48.60;;;;;;4965542;28;20577;-57
2024/01/16 07:54:13;;;;;;;9.07;5.40;;;5.10;48.30;;;;;;4965118;28;20191;-59
2024/01/16 07:56:38;;;;;;;14.90;7.50;;;5.10;48.20;;;;;;4966194;28;20206;-56
2024/01/16 07:59:04;;;;;;;9.33;8.20;;;5.00;48.10;;;;;;4968995;28;20455;-56
2024/01/16 08:01:29;;;;;;;15.20;9.10;;;5.00;48.20;;;;;;4963739;28;20561;-56
2024/01/16 08:03:56;;;;;;;11.73;6.90;;;5.00;48.10;;;;;;4967265;28;20237;-56
2024/01/16 08:06:22;;;;;;;7.80;5.67;;;5.10;48.00;;;;;;4962272;28;20302;-57
2024/01/16 08:08:48;;;;;;;6.50;4.40;;;5.20;48.00;;;;;;4968314;28;20851;-57
2024/01/16 08:11:14;;;;;;;7.47;4.93;;;5.20;47.80;;;;;;4965258;28;20431;-59
2024/01/16 08:13:40;;;;;;;7.23;4.97;;;5.20;47.60;;;;;;4967152;28;20938;-57
2024/01/16 08:16:05;;;;;;;6.20;5.40;;;5.10;47.60;;;;;;4967820;28;20450;-56
2024/01/16 08:18:31;;;;;;;5.27;4.40;;;5.00;47.70;;;;;;4974115;28;20702;-56
2024/01/16 08:20:57;;;;;;;5.03;3.87;;;5.20;47.80;;;;;;4962780;28;20187;-55
2024/01/16 08:23:23;;;;;;;5.80;4.10;;;5.10;47.50;;;;;;4955573;28;20214;-53
2024/01/16 08:25:49;;;;;;;5.03;3.27;;;5.00;47.40;;;;;;4954691;28;20593;-53
2024/01/16 08:28:14;;;;;;;6.80;4.30;;;5.10;47.80;;;;;;4959436;28;20195;-57
2024/01/16 08:30:40;;;;;;;6.00;3.90;;;5.30;47.90;;;;;;4986712;28;20435;-54
2024/01/16 08:33:07;;;;;;;8.23;5.40;;;5.30;47.20;;;;;;4970660;28;20907;-52
2024/01/16 08:35:33;;;;;;;4.40;3.93;;;5.40;47.00;;;;;;4969263;28;20640;-54
2024/01/16 08:37:59;;;;;;;7.50;3.90;;;5.40;47.10;;;;;;4967854;28;20537;-56
2024/01/16 08:40:24;;;;;;;4.60;3.87;;;5.40;47.40;;;;;;4971507;28;20479;-57
2024/01/16 08:42:54;;;;;;;5.53;3.53;;;5.30;47.10;;;;;;4963741;28;20183;-55
2024/01/16 08:45:20;;;;;;;8.70;3.70;;;5.20;47.40;;;;;;4964888;28;20194;-58
2024/01/16 08:47:46;;;;;;;3.60;2.67;;;5.10;47.40;;;;;;4966002;28;20922;-59
2024/01/16 08:50:12;;;;;;;3.13;2.77;;;5.20;47.50;;;;;;4966665;28;20450;-60
2024/01/16 08:52:37;;;;;;;4.23;2.40;;;4.90;47.30;;;;;;4965487;28;20549;-58
2024/01/16 08:55:03;;;;;;;6.87;3.87;;;4.70;47.20;;;;;;4977627;28;20200;-59
2024/01/16 08:57:29;;;;;;;5.13;3.50;;;4.70;47.70;;;;;;4967083;28;20223;-57
2024/01/16 08:59:55;;;;;;;7.97;3.23;;;4.50;47.70;;;;;;4967520;28;20447;-57
2024/01/16 09:02:21;;;;;;;6.83;3.67;;;4.50;47.80;;;;;;4958808;28;20589;-58
2024/01/16 09:04:47;;;;;;;5.17;3.63;;;4.60;48.00;;;;;;4963652;28;20270;-58
2024/01/16 09:07:15;;;;;;;4.87;2.70;;;4.60;47.70;;;;;;4967214;28;20494;-59
2024/01/16 09:09:42;;;;;;;4.27;2.50;;;4.40;47.40;;;;;;4969177;28;20450;-60
2024/01/16 09:12:08;;;;;;;5.90;3.13;;;4.10;48.10;;;;;;4972938;28;20447;-60
2024/01/16 09:14:34;;;;;;;5.53;3.17;;;4.30;48.60;;;;;;4971601;28;20453;-60
2024/01/16 09:16:59;;;;;;;4.83;3.90;;;4.80;48.30;;;;;;4972154;28;20577;-58
2024/01/16 09:19:25;;;;;;;5.07;2.93;;;5.10;47.70;;;;;;4982288;28;20222;-60
2024/01/16 09:21:51;;;;;;;7.97;4.60;;;5.40;47.00;;;;;;4979393;28;20183;-59
2024/01/16 09:24:16;;;;;;;4.53;3.40;;;5.50;46.50;;;;;;4976218;28;20187;-57
2024/01/16 09:26:42;;;;;;;4.13;3.00;;;5.70;46.30;;;;;;4964560;28;20303;-55
2024/01/16 09:29:09;;;;;;;3.13;2.83;;;5.80;45.80;;;;;;4966468;28;20728;-57
2024/01/16 09:31:35;;;;;;;3.83;2.87;;;5.70;45.10;;;;;;4963894;28;20685;-57
2024/01/16 09:34:02;;;;;;;6.60;3.40;;;5.80;45.60;;;;;;4967613;28;20455;-57
2024/01/16 09:36:27;;;;;;;5.73;3.77;;;5.60;45.60;;;;;;4969871;28;20216;-57
2024/01/16 09:38:53;;;;;;;6.73;3.10;;;5.50;45.80;;;;;;4966942;28;20845;-57
2024/01/16 09:41:18;;;;;;;6.13;3.73;;;5.60;45.80;;;;;;4960565;28;20278;-57
2024/01/16 09:43:45;;;;;;;7.57;3.40;;;5.50;45.80;;;;;;4967315;28;20183;-57
2024/01/16 09:46:12;;;;;;;4.90;3.27;;;5.50;45.90;;;;;;4964691;28;20246;-55
2024/01/16 09:48:37;;;;;;;11.00;3.13;;;5.40;45.70;;;;;;4966813;28;20443;-58
2024/01/16 09:51:03;;;;;;;6.63;3.17;;;5.30;46.40;;;;;;4965554;28;20446;-58
2024/01/16 09:53:29;;;;;;;5.57;2.80;;;5.40;46.30;;;;;;4966152;28;20273;-56
2024/01/16 09:56:02;;;;;;;4.70;3.30;;;5.30;46.40;;;;;;4965608;28;20221;-58
2024/01/16 09:58:30;;;;;;;4.90;3.20;;;5.40;46.30;;;;;;4962225;28;20222;-57
2024/01/16 10:00:56;;;;;;;3.87;3.20;;;5.30;46.40;;;;;;4968627;28;20431;-57
2024/01/16 10:03:22;;;;;;;5.57;2.80;;;5.50;46.10;;;;;;4967190;28;20442;-57
2024/01/16 10:05:49;;;;;;;4.30;2.90;;;5.70;45.90;;;;;;4965931;28;20474;-55
2024/01/16 10:08:14;;;;;;;6.40;2.90;;;5.90;45.70;;;;;;4967240;28;20499;-57
2024/01/16 10:10:40;;;;;;;5.87;3.50;;;6.10;45.00;;;;;;4968265;28;21029;-56
2024/01/16 10:13:07;;;;;;;4.20;3.20;;;5.90;44.40;;;;;;4966925;28;20204;-56
2024/01/16 10:15:33;;;;;;;3.13;2.80;;;5.70;44.90;;;;;;4966720;28;20499;-57
2024/01/16 10:17:59;;;;;;;7.03;3.17;;;5.60;45.10;;;;;;4961615;28;20891;-58
2024/01/16 10:20:35;;;;;;;7.80;3.70;;;5.40;45.40;;;;;;4965737;28;20941;-57
2024/01/16 10:23:00;;;;;;;5.17;3.27;;;5.30;46.30;;;;;;4965796;28;20449;-58
2024/01/16 10:25:26;;;;;;;7.57;3.67;;;5.70;46.30;;;;;;4966858;28;20966;-57
2024/01/16 10:28:07;;;;;;;3.90;3.50;;;5.70;46.30;;;;;;4965962;28;20190;-56
2024/01/16 10:30:33;;;;;;;5.70;3.13;;;5.70;45.90;;;;;;4976689;28;20274;-58
2024/01/16 10:33:16;;;;;;;6.00;3.63;;;5.90;45.80;;;;;;4967638;28;20434;-58
2024/01/16 10:35:42;;;;;;;6.80;3.37;;;6.10;45.10;;;;;;4969137;28;20453;-58
2024/01/16 10:38:08;;;;;;;6.00;3.50;;;6.30;44.40;;;;;;4975513;28;20482;-57
2024/01/16 10:40:34;;;;;;;4.17;2.97;;;6.50;44.20;;;;;;4964496;28;20188;-58
2024/01/16 10:43:04;;;;;;;6.10;3.30;;;6.70;43.80;;;;;;4965903;28;20220;-58
2024/01/16 10:45:30;;;;;;;7.60;3.93;;;6.80;43.60;;;;;;4964915;28;20458;-56
2024/01/16 10:48:08;;;;;;;6.60;3.90;;;6.80;43.50;;;;;;4969615;28;20454;-56
2024/01/16 10:50:38;;;;;;;4.87;3.20;;;6.70;43.10;;;;;;4966647;28;20955;-57
2024/01/16 10:53:04;;;;;;;5.70;3.30;;;6.50;43.00;;;;;;4964320;28;20476;-58
2024/01/16 10:55:33;;;;;;;3.97;3.23;;;6.50;43.50;;;;;;4977714;28;20514;-57
2024/01/16 10:58:01;;;;;;;13.03;3.73;;;6.80;43.20;;;;;;4965158;28;20470;-56
2024/01/16 11:00:28;;;;;;;6.30;2.97;;;7.10;42.90;;;;;;4966587;28;20419;-57
2024/01/16 11:03:07;;;;;;;7.37;2.67;;;7.10;42.60;;;;;;4970652;28;20820;-56
2024/01/16 11:05:35;;;;;;;6.20;3.23;;;7.40;43.70;;;;;;4960913;28;20455;-57
2024/01/16 11:08:01;;;;;;;4.73;3.50;;;7.70;42.10;;;;;;4969465;28;20446;-57
2024/01/16 11:10:32;;;;;;;3.80;2.63;;;7.60;42.50;;;;;;4970576;28;20438;-57
2024/01/16 11:13:02;;;;;;;4.57;3.03;;;8.10;42.00;;;;;;4967654;28;20218;-58
2024/01/16 11:15:28;;;;;;;5.87;3.53;;;8.60;41.20;;;;;;4972722;28;20482;-58
2024/01/16 11:17:55;;;;;;;4.43;2.63;;;8.60;39.40;;;;;;4963284;28;20903;-57
2024/01/16 11:20:22;;;;;;;6.30;2.90;;;9.20;40.30;;;;;;4966836;28;20423;-56
2024/01/16 11:22:49;;;;;;;3.80;2.80;;;9.80;38.60;;;;;;4969811;28;20434;-58
2024/01/16 11:25:16;;;;;;;5.53;3.00;;;9.70;37.50;;;;;;4970216;28;20492;-58
2024/01/16 11:27:42;;;;;;;5.20;3.13;;;9.80;37.40;;;;;;4973232;28;20500;-57
2024/01/16 11:30:13;;;;;;;3.77;3.37;;;10.20;36.90;;;;;;4969044;28;20442;-59
2024/01/16 11:32:40;;;;;;;3.00;2.70;;;10.20;36.70;;;;;;4969817;28;21425;-57
2024/01/16 11:35:08;;;;;;;3.03;2.43;;;10.20;36.60;;;;;;4969584;28;20438;-59
2024/01/16 11:37:36;;;;;;;3.43;3.10;;;10.20;36.50;;;;;;4969003;28;20475;-57
2024/01/16 11:40:23;;;;;;;3.97;3.20;;;10.10;36.30;;;;;;4974537;28;20431;-57
2024/01/16 11:42:50;;;;;;;5.93;3.93;;;9.80;37.10;;;;;;4967232;28;20442;-59
2024/01/16 11:45:28;;;;;;;3.40;2.50;;;10.00;36.70;;;;;;4969381;28;20470;-58
2024/01/16 11:48:11;;;;;;;4.57;3.10;;;9.90;36.60;;;;;;4967765;28;20434;-58
2024/01/16 11:50:37;;;;;;;6.40;2.93;;;10.00;36.20;;;;;;4964010;28;20441;-57
2024/01/16 11:53:03;;;;;;;4.00;2.87;;;9.80;36.90;;;;;;4966535;28;20435;-57
2024/01/16 11:55:37;;;;;;;3.70;2.20;;;9.90;36.60;;;;;;4958741;28;20309;-59
2024/01/16 11:58:31;;;;;;;6.67;2.70;;;10.00;35.30;;;;;;4969815;28;20471;-59
2024/01/16 12:00:57;;;;;;;4.43;2.40;;;10.30;35.30;;;;;;4967308;28;20439;-56
2024/01/16 12:03:23;;;;;;;3.17;2.60;;;10.50;35.50;;;;;;4967074;28;20952;-59
2024/01/16 12:05:59;;;;;;;6.33;2.83;;;10.10;34.60;;;;;;4964967;28;20455;-58
2024/01/16 12:08:25;;;;;;;4.43;3.13;;;10.10;36.30;;;;;;4979886;28;20521;-59
2024/01/16 12:10:50;;;;;;;5.20;2.23;;;10.10;35.50;;;;;;4960709;28;20471;-58
2024/01/16 12:13:16;;;;;;;2.93;2.40;;;10.20;35.60;;;;;;4963064;28;20528;-59
2024/01/16 12:15:42;;;;;;;6.90;2.77;;;10.40;35.50;;;;;;4980211;28;20211;-58
2024/01/16 12:18:08;;;;;;;2.90;2.47;;;10.60;35.40;;;;;;4966036;28;20231;-58
2024/01/16 12:20:36;;;;;;;7.53;3.00;;;10.90;35.60;;;;;;4967181;28;20892;-58
2024/01/16 12:23:03;;;;;;;6.30;2.50;;;10.90;34.50;;;;;;4968331;28;20218;-57
2024/01/16 12:25:33;;;;;;;7.77;3.90;;;11.10;34.50;;;;;;4967233;28;20524;-59
2024/01/16 12:28:01;;;;;;;4.37;3.33;;;11.20;33.90;;;;;;4973234;28;20430;-59
2024/01/16 12:30:29;;;;;;;5.80;3.20;;;11.20;33.20;;;;;;4966452;28;20447;-58
2024/01/16 12:33:08;;;;;;;3.50;2.17;;;11.30;33.20;;;;;;4970662;28;20472;-60
2024/01/16 12:35:38;;;;;;;4.03;2.40;;;11.20;32.60;;;;;;4984563;28;20449;-58
2024/01/16 12:38:12;;;;;;;4.00;1.60;;;11.20;32.70;;;;;;4967993;28;20489;-59
2024/01/16 12:40:58;;;;;;;3.40;1.80;;;11.30;32.60;;;;;;4968041;28;20439;-56
2024/01/16 12:43:24;;;;;;;2.63;1.40;;;11.10;31.80;;;;;;4976599;28;20435;-58
2024/01/16 12:45:57;;;;;;;7.00;2.37;;;11.20;32.20;;;;;;4965722;28;20985;-59
2024/01/16 12:48:24;;;;;;;3.80;2.13;;;11.30;32.40;;;;;;4980979;28;20214;-59
2024/01/16 12:50:50;;;;;;;4.23;1.73;;;11.40;31.50;;;;;;4967159;28;20431;-59
2024/01/16 12:53:16;;;;;;;2.20;1.77;;;11.30;31.50;;;;;;4987618;28;20442;-58